sensor_id;sensor_type;location;lat;lon;timestamp;pressure;altitude;pressure_sealevel;temperature;humidity
46722;BME280;32455;43.430;23.136;2023-07-29T00:00:18;97869.59;;;17.55;100.00
46722;BME280;32455;43.430;23.136;2023-07-29T00:03:04;97900.28;;;17.50;100.00
46722;BME280;32455;43.430;23.136;2023-07-29T00:05:50;97903.28;;;17.38;100.00
46722;BME280;32455;43.430;23.136;2023-07-29T00:08:36;97911.19;;;17.40;100.00
46722;BME280;32455;43.430;23.136;2023-07-29T00:11:21;97842.50;;;17.19;100.00
46722;BME280;32455;43.430;23.136;2023-07-29T00:14:06;97906.00;;;17.33;100.00
46722;BME280;32455;43.430;23.136;2023-07-29T00:16:52;97911.16;;;17.55;100.00
46722;BME280;32455;43.430;23.136;2023-07-29T00:19:37;97879.69;;;17.39;100.00
46722;BME280;32455;43.430;23.136;2023-07-29T00:22:22;97895.44;;;17.32;100.00
46722;BME280;32455;43.430;23.136;2023-07-29T00:25:08;97900.53;;;16.67;100.00
46722;BME280;32455;43.430;23.136;2023-07-29T00:27:56;97910.88;;;16.80;100.00
46722;BME280;32455;43.430;23.136;2023-07-29T00:30:41;97896.78;;;16.83;100.00
46722;BME280;32455;43.430;23.136;2023-07-29T00:33:26;97849.75;;;16.47;100.00
46722;BME280;32455;43.430;23.136;2023-07-29T00:36:12;97881.31;;;17.14;100.00
46722;BME280;32455;43.430;23.136;2023-07-29T00:38:56;97814.81;;;16.86;100.00
46722;BME280;32455;43.430;23.136;2023-07-29T00:41:42;97907.09;;;17.58;100.00
46722;BME280;32455;43.430;23.136;2023-07-29T00:44:27;97885.66;;;17.41;100.00
46722;BME280;32455;43.430;23.136;2023-07-29T00:47:15;97910.88;;;17.67;100.00
46722;BME280;32455;43.430;23.136;2023-07-29T00:50:01;97890.00;;;17.26;100.00
46722;BME280;32455;43.430;23.136;2023-07-29T00:52:47;97903.03;;;17.30;100.00
46722;BME280;32455;43.430;23.136;2023-07-29T00:55:33;97917.44;;;17.40;100.00
46722;BME280;32455;43.430;23.136;2023-07-29T00:58:19;97901.41;;;17.08;100.00
46722;BME280;32455;43.430;23.136;2023-07-29T01:01:04;97920.41;;;17.28;100.00
46722;BME280;32455;43.430;23.136;2023-07-29T01:03:50;97856.84;;;16.58;100.00
46722;BME280;32455;43.430;23.136;2023-07-29T01:15:40;97872.66;;;16.97;100.00
46722;BME280;32455;43.430;23.136;2023-07-29T01:18:32;97919.88;;;17.32;100.00
46722;BME280;32455;43.430;23.136;2023-07-29T01:21:20;97854.38;;;16.51;100.00
46722;BME280;32455;43.430;23.136;2023-07-29T01:24:06;97913.09;;;17.09;100.00
46722;BME280;32455;43.430;23.136;2023-07-29T01:26:51;97902.50;;;17.02;100.00
46722;BME280;32455;43.430;23.136;2023-07-29T01:29:37;97888.91;;;17.12;100.00
46722;BME280;32455;43.430;23.136;2023-07-29T01:35:31;97925.47;;;16.64;100.00
46722;BME280;32455;43.430;23.136;2023-07-29T01:38:21;97859.78;;;16.41;100.00
46722;BME280;32455;43.430;23.136;2023-07-29T01:41:09;97895.41;;;16.81;100.00
46722;BME280;32455;43.430;23.136;2023-07-29T01:43:55;97887.25;;;16.70;100.00
46722;BME280;32455;43.430;23.136;2023-07-29T01:46:41;97806.56;;;16.05;100.00
46722;BME280;32455;43.430;23.136;2023-07-29T01:49:26;97887.13;;;16.30;100.00
46722;BME280;32455;43.430;23.136;2023-07-29T01:52:12;97882.34;;;16.62;100.00
46722;BME280;32455;43.430;23.136;2023-07-29T01:54:58;97856.84;;;16.63;100.00
46722;BME280;32455;43.430;23.136;2023-07-29T01:57:43;97885.94;;;16.93;100.00
46722;BME280;32455;43.430;23.136;2023-07-29T02:00:29;97893.28;;;16.93;100.00
46722;BME280;32455;43.430;23.136;2023-07-29T02:03:15;97890.72;;;16.45;100.00
46722;BME280;32455;43.430;23.136;2023-07-29T02:06:00;97900.41;;;16.26;100.00
46722;BME280;32455;43.430;23.136;2023-07-29T02:08:45;97837.31;;;15.68;100.00
46722;BME280;32455;43.430;23.136;2023-07-29T02:11:30;97874.88;;;16.12;100.00
46722;BME280;32455;43.430;23.136;2023-07-29T02:14:16;97812.38;;;15.71;100.00
46722;BME280;32455;43.430;23.136;2023-07-29T02:17:01;97880.22;;;15.96;100.00
46722;BME280;32455;43.430;23.136;2023-07-29T02:19:47;97770.81;;;15.45;100.00
46722;BME280;32455;43.430;23.136;2023-07-29T02:22:33;97826.41;;;15.63;100.00
46722;BME280;32455;43.430;23.136;2023-07-29T02:25:18;97798.78;;;15.61;100.00
46722;BME280;32455;43.430;23.136;2023-07-29T02:28:04;97919.78;;;15.92;100.00
46722;BME280;32455;43.430;23.136;2023-07-29T02:31:09;97802.97;;;15.36;100.00
46722;BME280;32455;43.430;23.136;2023-07-29T02:33:58;97821.72;;;16.06;100.00
46722;BME280;32455;43.430;23.136;2023-07-29T02:36:44;97794.38;;;16.07;100.00
46722;BME280;32455;43.430;23.136;2023-07-29T02:39:33;97870.06;;;16.24;100.00
46722;BME280;32455;43.430;23.136;2023-07-29T02:42:22;97794.38;;;15.44;100.00
46722;BME280;32455;43.430;23.136;2023-07-29T02:45:11;97876.16;;;15.89;100.00
46722;BME280;32455;43.430;23.136;2023-07-29T02:47:56;97846.97;;;15.59;100.00
46722;BME280;32455;43.430;23.136;2023-07-29T02:50:41;97850.47;;;15.54;100.00
46722;BME280;32455;43.430;23.136;2023-07-29T02:53:27;97865.25;;;15.73;100.00
46722;BME280;32455;43.430;23.136;2023-07-29T02:56:12;97836.75;;;15.71;100.00
46722;BME280;32455;43.430;23.136;2023-07-29T02:58:58;97874.00;;;15.96;100.00
46722;BME280;32455;43.430;23.136;2023-07-29T03:01:45;97816.13;;;15.60;100.00
46722;BME280;32455;43.430;23.136;2023-07-29T03:04:30;97793.28;;;15.45;100.00
46722;BME280;32455;43.430;23.136;2023-07-29T03:07:15;97868.44;;;15.28;100.00
46722;BME280;32455;43.430;23.136;2023-07-29T03:10:02;97826.78;;;14.92;100.00
46722;BME280;32455;43.430;23.136;2023-07-29T03:12:47;97866.81;;;15.27;100.00
46722;BME280;32455;43.430;23.136;2023-07-29T03:15:33;97809.19;;;14.57;100.00
46722;BME280;32455;43.430;23.136;2023-07-29T03:18:19;97852.75;;;14.93;100.00
46722;BME280;32455;43.430;23.136;2023-07-29T03:21:05;97934.06;;;15.77;100.00
46722;BME280;32455;43.430;23.136;2023-07-29T03:23:51;97920.38;;;15.99;100.00
46722;BME280;32455;43.430;23.136;2023-07-29T03:26:37;97894.75;;;15.75;100.00
46722;BME280;32455;43.430;23.136;2023-07-29T03:29:25;97908.84;;;15.35;100.00
46722;BME280;32455;43.430;23.136;2023-07-29T03:32:11;97910.19;;;15.74;100.00
46722;BME280;32455;43.430;23.136;2023-07-29T03:34:56;97904.47;;;15.66;100.00
46722;BME280;32455;43.430;23.136;2023-07-29T03:37:42;97919.19;;;15.43;100.00
46722;BME280;32455;43.430;23.136;2023-07-29T03:40:26;97766.47;;;14.59;100.00
46722;BME280;32455;43.430;23.136;2023-07-29T03:43:11;97803.28;;;14.97;100.00
46722;BME280;32455;43.430;23.136;2023-07-29T03:45:56;97919.81;;;15.97;100.00
46722;BME280;32455;43.430;23.136;2023-07-29T03:48:42;97913.72;;;16.33;100.00
46722;BME280;32455;43.430;23.136;2023-07-29T03:51:29;97903.69;;;16.33;100.00
46722;BME280;32455;43.430;23.136;2023-07-29T03:54:23;97897.06;;;15.98;100.00
46722;BME280;32455;43.430;23.136;2023-07-29T03:57:11;97929.09;;;16.07;100.00
46722;BME280;32455;43.430;23.136;2023-07-29T03:59:56;97879.88;;;15.77;100.00
46722;BME280;32455;43.430;23.136;2023-07-29T04:02:42;97927.84;;;16.40;100.00
46722;BME280;32455;43.430;23.136;2023-07-29T04:05:27;97945.75;;;16.41;100.00
46722;BME280;32455;43.430;23.136;2023-07-29T04:08:12;97900.38;;;16.16;100.00
46722;BME280;32455;43.430;23.136;2023-07-29T04:10:58;97919.44;;;16.36;100.00
46722;BME280;32455;43.430;23.136;2023-07-29T04:13:43;97898.88;;;16.50;100.00
46722;BME280;32455;43.430;23.136;2023-07-29T04:16:28;97913.03;;;16.73;100.00
46722;BME280;32455;43.430;23.136;2023-07-29T04:19:14;97872.03;;;16.54;100.00
46722;BME280;32455;43.430;23.136;2023-07-29T04:21:59;97910.09;;;17.00;100.00
46722;BME280;32455;43.430;23.136;2023-07-29T04:24:45;97940.50;;;17.43;100.00
46722;BME280;32455;43.430;23.136;2023-07-29T04:27:30;97941.56;;;17.67;100.00
46722;BME280;32455;43.430;23.136;2023-07-29T04:30:16;97943.97;;;18.05;100.00
46722;BME280;32455;43.430;23.136;2023-07-29T04:33:01;97897.72;;;18.10;100.00
46722;BME280;32455;43.430;23.136;2023-07-29T04:35:47;97882.19;;;18.15;100.00
46722;BME280;32455;43.430;23.136;2023-07-29T04:38:33;97909.25;;;18.51;100.00
46722;BME280;32455;43.430;23.136;2023-07-29T04:41:18;97935.31;;;18.57;100.00
46722;BME280;32455;43.430;23.136;2023-07-29T04:44:05;97942.38;;;18.63;100.00
46722;BME280;32455;43.430;23.136;2023-07-29T04:46:50;97903.53;;;18.47;100.00
46722;BME280;32455;43.430;23.136;2023-07-29T04:49:37;97901.09;;;18.46;100.00
46722;BME280;32455;43.430;23.136;2023-07-29T04:52:22;97870.88;;;18.47;100.00
46722;BME280;32455;43.430;23.136;2023-07-29T04:55:08;97870.06;;;18.47;100.00
46722;BME280;32455;43.430;23.136;2023-07-29T04:57:53;97883.56;;;18.62;100.00
46722;BME280;32455;43.430;23.136;2023-07-29T05:00:39;97961.66;;;19.16;100.00
46722;BME280;32455;43.430;23.136;2023-07-29T05:03:24;97927.59;;;19.19;100.00
46722;BME280;32455;43.430;23.136;2023-07-29T05:06:09;97945.69;;;19.39;100.00
46722;BME280;32455;43.430;23.136;2023-07-29T05:08:57;97950.38;;;19.67;100.00
46722;BME280;32455;43.430;23.136;2023-07-29T05:11:43;97959.31;;;19.73;100.00
46722;BME280;32455;43.430;23.136;2023-07-29T05:14:31;97928.34;;;19.59;100.00
46722;BME280;32455;43.430;23.136;2023-07-29T05:17:17;97955.72;;;19.77;100.00
46722;BME280;32455;43.430;23.136;2023-07-29T05:20:02;97968.97;;;19.89;100.00
46722;BME280;32455;43.430;23.136;2023-07-29T05:22:48;97952.78;;;19.98;100.00
46722;BME280;32455;43.430;23.136;2023-07-29T05:25:33;97955.81;;;20.20;100.00
46722;BME280;32455;43.430;23.136;2023-07-29T05:28:21;97971.38;;;20.44;100.00
46722;BME280;32455;43.430;23.136;2023-07-29T05:31:07;97958.25;;;20.46;100.00
46722;BME280;32455;43.430;23.136;2023-07-29T05:33:54;97973.66;;;20.80;100.00
46722;BME280;32455;43.430;23.136;2023-07-29T05:36:38;97947.78;;;20.77;100.00
46722;BME280;32455;43.430;23.136;2023-07-29T05:39:26;97927.41;;;20.69;100.00
46722;BME280;32455;43.430;23.136;2023-07-29T05:42:12;97983.06;;;21.11;100.00
46722;BME280;32455;43.430;23.136;2023-07-29T05:44:57;97967.63;;;21.01;100.00
46722;BME280;32455;43.430;23.136;2023-07-29T05:48:05;97907.97;;;20.71;100.00
46722;BME280;32455;43.430;23.136;2023-07-29T05:51:01;97895.19;;;20.85;100.00
46722;BME280;32455;43.430;23.136;2023-07-29T05:53:56;97887.59;;;20.63;100.00
46722;BME280;32455;43.430;23.136;2023-07-29T05:56:50;97929.53;;;20.91;99.28
46722;BME280;32455;43.430;23.136;2023-07-29T05:59:42;97856.13;;;20.52;97.74
46722;BME280;32455;43.430;23.136;2023-07-29T06:06:02;97928.44;;;20.92;96.90
46722;BME280;32455;43.430;23.136;2023-07-29T06:08:56;97928.44;;;20.92;96.28
46722;BME280;32455;43.430;23.136;2023-07-29T06:11:45;97865.34;;;20.56;92.70
46722;BME280;32455;43.430;23.136;2023-07-29T06:18:00;97900.22;;;20.97;94.20
46722;BME280;32455;43.430;23.136;2023-07-29T06:21:15;97890.19;;;21.11;98.93
46722;BME280;32455;43.430;23.136;2023-07-29T06:24:20;97873.34;;;21.04;95.92
46722;BME280;32455;43.430;23.136;2023-07-29T06:27:11;97878.84;;;21.18;95.95
46722;BME280;32455;43.430;23.136;2023-07-29T06:30:36;97881.19;;;21.43;97.52
46722;BME280;32455;43.430;23.136;2023-07-29T06:37:16;97922.50;;;22.02;94.66
46722;BME280;32455;43.430;23.136;2023-07-29T06:40:13;97847.88;;;21.41;93.85
46722;BME280;32455;43.430;23.136;2023-07-29T06:54:08;97900.59;;;22.02;91.30
46722;BME280;32455;43.430;23.136;2023-07-29T07:00:20;97870.78;;;22.00;91.99
46722;BME280;32455;43.430;23.136;2023-07-29T07:07:29;97889.59;;;22.71;87.65
46722;BME280;32455;43.430;23.136;2023-07-29T07:10:28;97864.78;;;22.54;89.56
46722;BME280;32455;43.430;23.136;2023-07-29T07:13:13;97938.94;;;23.07;90.64
46722;BME280;32455;43.430;23.136;2023-07-29T07:16:01;97910.97;;;22.96;89.39
46722;BME280;32455;43.430;23.136;2023-07-29T07:18:49;97957.75;;;23.45;88.31
46722;BME280;32455;43.430;23.136;2023-07-29T07:21:44;97873.16;;;23.07;86.41
46722;BME280;32455;43.430;23.136;2023-07-29T07:24:42;97983.66;;;23.75;85.94
46722;BME280;32455;43.430;23.136;2023-07-29T07:27:27;97950.97;;;23.87;83.71
46722;BME280;32455;43.430;23.136;2023-07-29T07:30:32;97969.41;;;24.35;83.50
46722;BME280;32455;43.430;23.136;2023-07-29T07:33:18;97991.53;;;24.30;84.02
46722;BME280;32455;43.430;23.136;2023-07-29T07:36:03;97994.28;;;24.30;84.34
46722;BME280;32455;43.430;23.136;2023-07-29T07:38:48;97982.78;;;24.28;85.09
46722;BME280;32455;43.430;23.136;2023-07-29T07:41:34;97998.25;;;24.46;82.05
46722;BME280;32455;43.430;23.136;2023-07-29T07:44:19;97976.66;;;24.71;83.91
46722;BME280;32455;43.430;23.136;2023-07-29T07:47:04;97986.81;;;24.62;79.53
46722;BME280;32455;43.430;23.136;2023-07-29T07:49:50;97977.78;;;24.61;83.76
46722;BME280;32455;43.430;23.136;2023-07-29T07:52:35;97975.22;;;24.73;84.28
46722;BME280;32455;43.430;23.136;2023-07-29T07:55:20;97989.00;;;24.91;79.46
46722;BME280;32455;43.430;23.136;2023-07-29T07:58:08;97972.53;;;25.78;74.18
46722;BME280;32455;43.430;23.136;2023-07-29T08:01:01;97967.72;;;26.21;73.00
46722;BME280;32455;43.430;23.136;2023-07-29T08:03:46;97981.06;;;26.02;73.80
46722;BME280;32455;43.430;23.136;2023-07-29T08:06:32;97998.72;;;26.01;74.24
46722;BME280;32455;43.430;23.136;2023-07-29T08:09:17;97967.25;;;26.11;71.61
46722;BME280;32455;43.430;23.136;2023-07-29T08:12:03;97954.97;;;26.38;73.58
46722;BME280;32455;43.430;23.136;2023-07-29T08:14:48;97975.00;;;26.26;70.69
46722;BME280;32455;43.430;23.136;2023-07-29T08:17:34;97985.97;;;26.35;69.94
46722;BME280;32455;43.430;23.136;2023-07-29T08:20:19;97982.72;;;26.71;71.16
46722;BME280;32455;43.430;23.136;2023-07-29T08:23:04;97968.63;;;26.34;69.52
46722;BME280;32455;43.430;23.136;2023-07-29T08:25:59;97986.56;;;26.49;69.10
46722;BME280;32455;43.430;23.136;2023-07-29T08:28:48;97986.22;;;27.10;69.31
46722;BME280;32455;43.430;23.136;2023-07-29T08:31:33;97962.69;;;27.12;68.45
46722;BME280;32455;43.430;23.136;2023-07-29T08:34:19;97958.34;;;27.11;69.74
46722;BME280;32455;43.430;23.136;2023-07-29T08:37:04;97974.41;;;26.80;68.68
46722;BME280;32455;43.430;23.136;2023-07-29T08:39:50;97953.09;;;26.89;68.08
46722;BME280;32455;43.430;23.136;2023-07-29T08:42:39;97940.59;;;26.91;68.48
46722;BME280;32455;43.430;23.136;2023-07-29T08:45:27;97978.69;;;27.19;66.09
46722;BME280;32455;43.430;23.136;2023-07-29T08:48:19;97915.03;;;27.03;58.00
46722;BME280;32455;43.430;23.136;2023-07-29T08:51:10;97963.97;;;27.15;57.12
46722;BME280;32455;43.430;23.136;2023-07-29T08:53:55;97943.22;;;27.09;57.69
46722;BME280;32455;43.430;23.136;2023-07-29T08:56:42;97955.28;;;27.25;56.36
46722;BME280;32455;43.430;23.136;2023-07-29T08:59:29;97941.97;;;27.27;57.67
46722;BME280;32455;43.430;23.136;2023-07-29T09:02:15;97941.44;;;27.34;55.58
46722;BME280;32455;43.430;23.136;2023-07-29T09:05:01;97961.25;;;27.48;53.58
46722;BME280;32455;43.430;23.136;2023-07-29T09:07:47;97949.38;;;27.68;49.66
46722;BME280;32455;43.430;23.136;2023-07-29T09:10:37;97960.16;;;27.94;49.12
46722;BME280;32455;43.430;23.136;2023-07-29T09:13:23;97949.78;;;27.91;51.91
46722;BME280;32455;43.430;23.136;2023-07-29T09:16:09;97964.13;;;28.18;50.11
46722;BME280;32455;43.430;23.136;2023-07-29T09:18:54;97928.72;;;27.87;51.10
46722;BME280;32455;43.430;23.136;2023-07-29T09:21:42;97959.13;;;27.99;49.92
46722;BME280;32455;43.430;23.136;2023-07-29T09:24:30;97964.00;;;28.02;47.24
46722;BME280;32455;43.430;23.136;2023-07-29T09:27:27;97973.78;;;28.12;47.34
46722;BME280;32455;43.430;23.136;2023-07-29T09:30:16;97939.94;;;27.69;46.14
46722;BME280;32455;43.430;23.136;2023-07-29T09:33:02;97926.78;;;27.75;45.38
46722;BME280;32455;43.430;23.136;2023-07-29T09:35:47;97955.38;;;28.16;47.61
46722;BME280;32455;43.430;23.136;2023-07-29T09:38:34;97949.38;;;28.26;48.49
46722;BME280;32455;43.430;23.136;2023-07-29T09:41:25;97959.31;;;28.27;45.84
46722;BME280;32455;43.430;23.136;2023-07-29T09:44:11;97964.97;;;28.55;47.44
46722;BME280;32455;43.430;23.136;2023-07-29T09:46:56;97935.59;;;28.38;47.26
46722;BME280;32455;43.430;23.136;2023-07-29T09:49:42;97930.31;;;28.45;50.18
46722;BME280;32455;43.430;23.136;2023-07-29T09:52:28;97940.78;;;28.52;48.59
46722;BME280;32455;43.430;23.136;2023-07-29T09:55:18;97926.63;;;28.54;47.18
46722;BME280;32455;43.430;23.136;2023-07-29T09:58:04;97909.56;;;28.64;48.40
46722;BME280;32455;43.430;23.136;2023-07-29T10:00:52;97927.16;;;28.96;45.13
46722;BME280;32455;43.430;23.136;2023-07-29T10:03:38;97934.84;;;28.90;45.29
46722;BME280;32455;43.430;23.136;2023-07-29T10:06:27;97920.16;;;28.62;44.18
46722;BME280;32455;43.430;23.136;2023-07-29T10:09:13;97917.16;;;28.55;46.23
46722;BME280;32455;43.430;23.136;2023-07-29T10:11:58;97911.50;;;28.76;45.91
46722;BME280;32455;43.430;23.136;2023-07-29T10:14:43;97917.13;;;28.91;46.73
46722;BME280;32455;43.430;23.136;2023-07-29T10:17:31;97935.72;;;28.66;46.22
46722;BME280;32455;43.430;23.136;2023-07-29T10:20:19;97939.81;;;29.09;46.08
46722;BME280;32455;43.430;23.136;2023-07-29T10:23:07;97902.25;;;29.08;45.40
46722;BME280;32455;43.430;23.136;2023-07-29T10:26:04;97916.50;;;29.10;43.73
46722;BME280;32455;43.430;23.136;2023-07-29T10:28:51;97902.38;;;29.00;45.07
46722;BME280;32455;43.430;23.136;2023-07-29T10:31:42;97930.47;;;29.14;43.66
46722;BME280;32455;43.430;23.136;2023-07-29T10:34:29;97926.28;;;29.20;44.49
46722;BME280;32455;43.430;23.136;2023-07-29T10:37:15;97923.13;;;29.34;45.42
46722;BME280;32455;43.430;23.136;2023-07-29T10:40:06;97912.91;;;29.22;44.38
46722;BME280;32455;43.430;23.136;2023-07-29T10:43:11;97920.88;;;29.11;42.51
46722;BME280;32455;43.430;23.136;2023-07-29T10:45:57;97915.16;;;29.04;44.27
46722;BME280;32455;43.430;23.136;2023-07-29T10:48:43;97917.16;;;28.79;44.60
46722;BME280;32455;43.430;23.136;2023-07-29T10:54:14;97912.25;;;28.48;46.51
46722;BME280;32455;43.430;23.136;2023-07-29T10:57:01;97909.38;;;28.44;47.67
46722;BME280;32455;43.430;23.136;2023-07-29T10:59:56;97905.75;;;28.32;48.62
46722;BME280;32455;43.430;23.136;2023-07-29T11:02:41;97881.56;;;28.16;47.76
46722;BME280;32455;43.430;23.136;2023-07-29T11:05:42;97908.19;;;28.45;49.16
46722;BME280;32455;43.430;23.136;2023-07-29T11:08:31;97901.38;;;28.67;48.85
46722;BME280;32455;43.430;23.136;2023-07-29T11:11:16;97888.88;;;28.86;50.67
46722;BME280;32455;43.430;23.136;2023-07-29T11:14:01;97903.94;;;29.13;48.00
46722;BME280;32455;43.430;23.136;2023-07-29T11:16:46;97875.63;;;29.04;47.24
46722;BME280;32455;43.430;23.136;2023-07-29T11:19:33;97888.16;;;29.13;44.69
46722;BME280;32455;43.430;23.136;2023-07-29T11:22:19;97882.50;;;29.10;45.70
46722;BME280;32455;43.430;23.136;2023-07-29T11:25:05;97904.50;;;29.47;45.77
46722;BME280;32455;43.430;23.136;2023-07-29T11:27:53;97913.66;;;29.35;42.90
46722;BME280;32455;43.430;23.136;2023-07-29T11:30:40;97915.47;;;29.15;42.51
46722;BME280;32455;43.430;23.136;2023-07-29T11:33:26;97894.09;;;29.00;41.94
46722;BME280;32455;43.430;23.136;2023-07-29T11:36:19;97902.72;;;28.98;41.44
46722;BME280;32455;43.430;23.136;2023-07-29T11:39:09;97878.06;;;28.81;42.45
46722;BME280;32455;43.430;23.136;2023-07-29T11:41:56;97857.09;;;28.80;44.16
46722;BME280;32455;43.430;23.136;2023-07-29T11:44:42;97872.00;;;29.15;43.19
46722;BME280;32455;43.430;23.136;2023-07-29T11:47:27;97903.00;;;29.21;39.99
46722;BME280;32455;43.430;23.136;2023-07-29T11:50:14;97877.19;;;29.17;41.56
46722;BME280;32455;43.430;23.136;2023-07-29T11:53:00;97870.28;;;29.11;42.67
46722;BME280;32455;43.430;23.136;2023-07-29T11:55:50;97856.97;;;29.01;41.33
46722;BME280;32455;43.430;23.136;2023-07-29T11:58:37;97879.28;;;29.08;45.57
46722;BME280;32455;43.430;23.136;2023-07-29T12:01:22;97862.78;;;28.71;45.72
46722;BME280;32455;43.430;23.136;2023-07-29T12:04:08;97884.38;;;29.06;45.17
46722;BME280;32455;43.430;23.136;2023-07-29T12:06:54;97871.88;;;29.40;41.91
46722;BME280;32455;43.430;23.136;2023-07-29T12:09:41;97887.41;;;29.88;39.37
46722;BME280;32455;43.430;23.136;2023-07-29T12:12:27;97884.09;;;29.67;36.42
46722;BME280;32455;43.430;23.136;2023-07-29T12:15:12;97862.91;;;29.59;37.27
46722;BME280;32455;43.430;23.136;2023-07-29T12:17:59;97883.69;;;30.12;38.38
46722;BME280;32455;43.430;23.136;2023-07-29T12:20:44;97892.69;;;29.78;36.17
46722;BME280;32455;43.430;23.136;2023-07-29T12:23:30;97875.00;;;29.10;36.51
46722;BME280;32455;43.430;23.136;2023-07-29T12:26:15;97844.44;;;29.63;39.17
46722;BME280;32455;43.430;23.136;2023-07-29T12:29:14;97873.56;;;30.04;37.23
46722;BME280;32455;43.430;23.136;2023-07-29T12:32:02;97854.91;;;29.85;38.23
46722;BME280;32455;43.430;23.136;2023-07-29T12:34:48;97862.75;;;29.83;40.08
46722;BME280;32455;43.430;23.136;2023-07-29T12:37:34;97868.66;;;30.13;36.53
46722;BME280;32455;43.430;23.136;2023-07-29T12:40:24;97861.72;;;30.20;34.66
46722;BME280;32455;43.430;23.136;2023-07-29T12:43:10;97822.25;;;30.10;35.57
46722;BME280;32455;43.430;23.136;2023-07-29T12:45:57;97888.19;;;30.52;36.74
46722;BME280;32455;43.430;23.136;2023-07-29T12:48:42;97843.84;;;30.52;36.94
46722;BME280;32455;43.430;23.136;2023-07-29T12:51:27;97822.56;;;30.40;36.60
46722;BME280;32455;43.430;23.136;2023-07-29T12:54:13;97862.94;;;30.73;38.03
46722;BME280;32455;43.430;23.136;2023-07-29T12:56:58;97858.00;;;30.31;34.58
46722;BME280;32455;43.430;23.136;2023-07-29T12:59:44;97866.47;;;30.54;34.40
46722;BME280;32455;43.430;23.136;2023-07-29T13:02:29;97873.66;;;30.39;38.85
46722;BME280;32455;43.430;23.136;2023-07-29T13:05:14;97861.84;;;30.78;36.79
46722;BME280;32455;43.430;23.136;2023-07-29T13:07:59;97860.03;;;30.85;35.09
46722;BME280;32455;43.430;23.136;2023-07-29T13:10:44;97873.50;;;31.03;35.59
46722;BME280;32455;43.430;23.136;2023-07-29T13:13:29;97877.44;;;31.02;35.90
46722;BME280;32455;43.430;23.136;2023-07-29T13:16:14;97867.97;;;30.67;35.43
46722;BME280;32455;43.430;23.136;2023-07-29T13:19:00;97869.28;;;30.74;34.05
46722;BME280;32455;43.430;23.136;2023-07-29T13:21:45;97870.94;;;30.94;36.57
46722;BME280;32455;43.430;23.136;2023-07-29T13:24:30;97879.16;;;30.90;36.25
46722;BME280;32455;43.430;23.136;2023-07-29T13:27:17;97869.75;;;30.60;35.43
46722;BME280;32455;43.430;23.136;2023-07-29T13:30:03;97878.53;;;30.97;36.84
46722;BME280;32455;43.430;23.136;2023-07-29T13:32:49;97856.59;;;30.92;35.61
46722;BME280;32455;43.430;23.136;2023-07-29T13:35:35;97862.03;;;30.85;35.12
46722;BME280;32455;43.430;23.136;2023-07-29T13:38:20;97874.94;;;30.61;35.76
46722;BME280;32455;43.430;23.136;2023-07-29T13:41:06;97864.44;;;30.71;37.18
46722;BME280;32455;43.430;23.136;2023-07-29T13:43:51;97865.66;;;31.08;38.93
46722;BME280;32455;43.430;23.136;2023-07-29T13:46:36;97833.34;;;30.97;37.73
46722;BME280;32455;43.430;23.136;2023-07-29T13:49:22;97869.09;;;31.21;37.27
46722;BME280;32455;43.430;23.136;2023-07-29T13:52:07;97847.75;;;31.25;38.36
46722;BME280;32455;43.430;23.136;2023-07-29T13:54:53;97861.28;;;31.27;37.76
46722;BME280;32455;43.430;23.136;2023-07-29T13:57:38;97845.44;;;31.08;36.76
46722;BME280;32455;43.430;23.136;2023-07-29T14:00:25;97855.75;;;30.88;37.68
46722;BME280;32455;43.430;23.136;2023-07-29T14:03:10;97861.34;;;30.91;37.99
46722;BME280;32455;43.430;23.136;2023-07-29T14:05:55;97848.34;;;30.96;38.22
46722;BME280;32455;43.430;23.136;2023-07-29T14:08:41;97838.97;;;30.65;37.76
46722;BME280;32455;43.430;23.136;2023-07-29T14:11:27;97834.63;;;30.48;38.97
46722;BME280;32455;43.430;23.136;2023-07-29T14:14:12;97854.56;;;30.89;35.00
46722;BME280;32455;43.430;23.136;2023-07-29T14:16:57;97830.69;;;30.84;38.45
46722;BME280;32455;43.430;23.136;2023-07-29T14:19:42;97816.03;;;30.84;37.15
46722;BME280;32455;43.430;23.136;2023-07-29T14:22:28;97817.03;;;30.95;37.21
46722;BME280;32455;43.430;23.136;2023-07-29T14:25:14;97825.59;;;30.71;37.01
46722;BME280;32455;43.430;23.136;2023-07-29T14:27:59;97834.72;;;30.52;36.14
46722;BME280;32455;43.430;23.136;2023-07-29T14:30:44;97826.91;;;30.92;39.12
46722;BME280;32455;43.430;23.136;2023-07-29T14:33:30;97823.31;;;30.92;37.67
46722;BME280;32455;43.430;23.136;2023-07-29T14:36:16;97840.19;;;31.03;37.62
46722;BME280;32455;43.430;23.136;2023-07-29T14:39:01;97838.34;;;30.91;36.82
46722;BME280;32455;43.430;23.136;2023-07-29T14:41:47;97822.03;;;30.70;36.21
46722;BME280;32455;43.430;23.136;2023-07-29T14:44:32;97838.88;;;30.42;38.10
46722;BME280;32455;43.430;23.136;2023-07-29T14:47:18;97829.78;;;30.26;38.72
46722;BME280;32455;43.430;23.136;2023-07-29T14:50:04;97818.34;;;30.11;39.60
46722;BME280;32455;43.430;23.136;2023-07-29T14:52:49;97824.78;;;30.00;40.83
46722;BME280;32455;43.430;23.136;2023-07-29T14:55:33;97826.66;;;29.80;40.54
46722;BME280;32455;43.430;23.136;2023-07-29T14:58:19;97827.38;;;29.61;40.70
46722;BME280;32455;43.430;23.136;2023-07-29T15:01:04;97825.19;;;29.54;40.27
46722;BME280;32455;43.430;23.136;2023-07-29T15:03:50;97823.22;;;29.55;40.21
46722;BME280;32455;43.430;23.136;2023-07-29T15:06:35;97797.56;;;29.42;41.81
46722;BME280;32455;43.430;23.136;2023-07-29T15:09:20;97808.47;;;29.51;42.83
46722;BME280;32455;43.430;23.136;2023-07-29T15:12:06;97800.63;;;29.37;44.32